NH16 weather

Brookline Airport
Brookline, New Hampshire, United States

Public forecast

Using degrees Fahrenheit for public forecast. Weather courtesy of forecast.io.

METAR (pilot weather report)

Closest report is Boire Field, 8.8 nm (16.4 km) ENE. Retrieved 2019/09/23 17:56 UTC (1 hour ago):

KASH 231756Z 27006G16KT 10SM CLR 32/17 A2975 RMK AO2 SLP075 T03170167 10322 20194 56021

TAF (pilot weather forecast)

Closest forecast is Manchester-Boston Regional Airport, 16.6 nm (30.7 km) NE. Retrieved 2019/09/23 18:22 UTC (34 minutes ago):

TAF KMHT 231720Z 2318/2418 22012G18KT P6SM SCT200 FM232100 22007KT P6SM OVC070 FM240200 23006KT P6SM VCSH BKN040 FM240600 22003KT P6SM SCT120 FM241500 29008KT P6SM BKN050